Station: Renmark Airport  

  Atmospheric Gas Attenuation - ITU Rec 676-11   ----------------- dB/100km -----------------
Date Time Temp RH % AH g/m3 Dew Point Wind Direction Speed kph Gust kph Barometer mB Rainfall Since 9am 24GHz 47GHz 76GHz 122GHz 134GHz 241GHz
02/09 02:20 9.6 97 8.89 9.1 2 6 1015.8 0.6 20.4 27.8 43.3 113.8 108.2 372.3
02/09 02:10 9.6 97 8.89 9.1 6 6 1015.7 0.6 20.4 27.7 43.3 113.8 108.2 372.2
02/09 02:00 10 97 9.12 9.5 0 0 1015.8 0.6 20.9 28.0 44.1 115.9 110.9 381.7
02/09 01:50 10.8 97 9.59 10.3 0 0 1015.8 0.6 21.9 28.6 45.7 120.1 116.4 401.1
02/09 01:40 11.5 97 10.02 11 0 0 1015.9 0.6 22.8 29.1 47.2 124.0 121.5 419.0
02/09 01:30 11.8 98 10.32 11.5 2 6 1016 0.6 23.4 29.5 48.3 127.0 125.4 432.4
02/09 01:20 11.1 97 9.77 10.6 4 6 1016.1 0.6 22.2 28.8 46.3 121.8 118.6 408.6
02/09 01:10 10.9 97 9.65 10.4 6 7 1016 0.6 22.0 28.7 45.9 120.7 117.1 403.6
02/09 01:00 10.4 96 9.25 9.8 4 7 1016 0.6 21.2 28.1 44.5 116.8 112.2 386.3
02/09 00:50 9.9 94 8.78 9 7 11 1016 0.6 20.2 27.5 42.7 112.1 106.3 365.5
02/09 00:40 10.7 95 9.33 9.9 9 11 1015.9 0.6 21.3 28.2 44.6 117.3 112.9 388.7
02/09 00:30 10.7 95 9.33 9.9 9 9 1015.8 0.6 21.3 28.2 44.6 117.2 112.9 388.7
02/09 00:20 11.4 95 9.75 10.6 9 11 1015.9 0.6 22.2 28.7 46.0 121.0 117.8 406.0
02/09 00:10 12 96 10.23 11.4 7 11 1015.9 0.6 23.2 29.3 47.8 125.6 123.7 426.8
02/09 00:00 12.1 96 10.3 11.5 6 9 1016 0.6 23.3 29.4 48.0 126.3 124.6 429.8
01/09 23:50 11.9 96 10.17 11.3 7 9 1016.1 0.6 23.1 29.3 47.6 125.1 123.0 424.4
01/09 23:40 11.6 95 9.88 10.8 9 11 1016 0.6 22.4 28.8 46.5 122.2 119.4 411.4
01/09 23:30 12.1 94 10.08 11.2 6 11 1016 0.6 22.9 29.0 47.1 123.8 121.4 418.7
01/09 23:20 12.6 94 10.4 11.7 0 0 1015.9 0.6 23.5 29.4 48.1 126.7 125.2 431.9
01/09 23:10 13.2 93 10.68 12.1 2 9 1015.8 0.6 24.1 29.7 49.0 128.9 128.2 442.5
01/09 23:00 13.7 94 11.13 12.8 0 0 1015.9 0.6 25.0 30.3 50.6 133.3 133.8 462.3
01/09 22:50 13.8 94 11.2 12.9 2 7 1016 0.6 25.2 30.4 50.9 134.0 134.7 465.3
01/09 22:40 13.7 94 11.13 12.8 7 9 1016 0.6 25.0 30.3 50.6 133.4 133.8 462.3
01/09 22:30 14.2 95 11.6 13.4 0 7 1015.9 0.6 26.0 31.0 52.4 138.0 139.8 483.1
01/09 22:20 14 94 11.34 13.1 0 0 1016 0.6 25.5 30.6 51.4 135.3 136.3 471.1
01/09 22:10 14.2 93 11.36 13.1 0 0 1016.2 0.6 25.5 30.6 51.3 135.2 136.3 471.0
01/09 22:00 14.3 92 11.3 13 0 0 1016.2 0.6 25.3 30.4 51.0 134.3 135.3 467.3
01/09 21:50 14.8 91 11.53 13.3 0 0 1016.2 0.6 25.8 30.7 51.7 136.2 137.7 475.9
01/09 21:40 14.9 91 11.6 13.4 0 0 1016.1 0.6 26.0 30.7 51.9 136.8 138.5 478.7
01/09 21:30 15 90 11.54 13.4 6 11 1016.1 0.6 25.8 30.6 51.6 135.9 137.4 475.1
01/09 21:20 15.1 89 11.48 13.3 13 19 1016 0.6 25.7 30.5 51.3 135.0 136.4 471.4
01/09 21:10 15.2 89 11.55 13.4 17 20 1015.9 0.6 25.8 30.5 51.5 135.6 137.2 474.3
01/09 21:00 15.4 88 11.56 13.4 22 26 1015.8 0.6 25.8 30.5 51.4 135.4 137.0 473.5
01/09 20:50 15.2 91 11.81 13.7 13 19 1016.4 0.4 26.4 31.0 52.7 138.8 141.0 487.6
01/09 20:40 15.3 91 11.88 13.8 4 9 1016.8 0.2 26.5 31.1 52.9 139.5 141.9 490.6
01/09 20:30 15.5 89 11.76 13.7 0 0 1017 0 26.3 30.8 52.3 137.7 139.8 483.4
01/09 20:20 15.7 85 11.37 13.2 0 0 1016.7 0 25.4 30.1 50.4 132.8 133.8 462.6
01/09 20:10 15.8 85 11.44 13.3 0 0 1016.6 0 25.6 30.2 50.7 133.4 134.6 465.4
01/09 20:00 15.8 85 11.44 13.3 9 13 1016.4 0 25.6 30.2 50.7 133.4 134.6 465.3
01/09 19:50 16.2 81 11.17 12.9 2 7 1016.6 0 24.9 29.6 49.2 129.6 130.1 449.7
01/09 19:40 16.6 78 11.02 12.8 7 11 1016.5 0 24.6 29.2 48.4 127.3 127.4 440.1
01/09 19:30 16.9 75 10.79 12.4 11 19 1016.8 0 24.1 28.7 47.2 124.2 123.7 427.5
01/09 19:20 17.3 72 10.61 12.2 17 24 1016.9 0 23.7 28.3 46.2 121.6 120.7 416.8
01/09 19:10 18.2 65 10.1 11.5 24 33 1017.1 0 22.6 27.2 43.7 114.8 112.5 388.4
01/09 19:00 19.7 54 9.17 10.1 26 39 1016.9 0 20.5 25.2 39.3 103.0 98.6 339.8
01/09 18:50 20.8 47 8.51 9.1 28 43 1016.5 0 19.1 23.9 36.3 95.1 89.2 307.0
01/09 18:40 20.3 47 8.27 8.6 13 15 1016.2 0 18.6 23.7 35.6 93.3 86.8 298.7
01/09 18:30 20.3 47 8.27 8.6 13 17 1016.1 0 18.6 23.7 35.6 93.3 86.8 298.7
01/09 18:20 20.1 48 8.34 8.8 9 15 1015.9 0 18.7 23.9 35.9 94.2 87.9 302.4
01/09 18:10 20.3 47 8.27 8.6 7 13 1015.8 0 18.6 23.7 35.6 93.3 86.8 298.6
01/09 18:00 21 44 8.06 8.3 6 7 1015.7 0 18.1 23.2 34.5 90.5 83.6 287.4
01/09 17:50 21.4 41 7.69 7.6 6 7 1015.7 0 17.3 22.6 33.1 86.5 78.8 270.9
01/09 17:40 21.8 39 7.48 7.2 7 9 1015.6 0 16.9 22.2 32.2 84.2 76.0 261.1
01/09 17:30 21.9 39 7.53 7.3 7 11 1015.3 0 17.0 22.2 32.3 84.5 76.5 262.7
01/09 17:20 22.1 38 7.42 7.1 9 15 1015.2 0 16.7 22.0 31.8 83.3 75.0 257.6
01/09 17:10 22.5 37 7.39 7.1 11 17 1015.2 0 16.6 21.9 31.6 82.6 74.3 255.2
01/09 17:00 23.1 34 7.03 6.4 15 24 1015.3 0 15.9 21.2 30.1 78.8 69.8 239.3
01/09 16:50 23.5 33 6.98 6.3 22 32 1015.3 0 15.8 21.1 29.8 77.9 68.9 236.3
01/09 16:40 23.5 34 7.19 6.7 22 32 1015.1 0 16.2 21.4 30.5 79.8 71.2 244.3
01/09 16:30 23.6 35 7.44 7.3 17 24 1015 0 16.7 21.7 31.3 81.9 73.9 253.7
01/09 16:20 23.5 35 7.4 7.2 17 22 1014.8 0 16.6 21.6 31.2 81.6 73.5 252.4
01/09 16:10 23.5 34 7.19 6.7 17 22 1014.7 0 16.2 21.3 30.5 79.7 71.2 244.2
01/09 16:00 23.8 32 6.88 6.1 20 32 1014.7 0 15.5 20.9 29.4 76.7 67.5 231.5
01/09 15:50 23.7 34 7.27 6.9 19 26 1014.8 0 16.3 21.4 30.7 80.3 71.9 246.8
01/09 15:40 23.8 32 6.88 6.1 22 32 1014.8 0 15.5 20.9 29.4 76.7 67.5 231.5
01/09 15:30 23.9 31 6.71 5.8 26 33 1015 0 15.2 20.6 28.8 75.2 65.6 224.8
01/09 15:20 24 31 6.74 5.8 26 33 1014.9 0 15.2 20.6 28.9 75.3 65.9 225.6
01/09 15:10 24.2 32 7.04 6.5 24 35 1014.7 0 15.9 21.0 29.8 77.8 68.9 236.4
01/09 15:00 24.4 31 6.9 6.2 26 35 1014.6 0 15.6 20.8 29.2 76.3 67.3 230.5
01/09 14:50 24.1 31 6.78 5.9 24 35 1014.6 0 15.3 20.7 28.9 75.6 66.2 226.8
01/09 14:40 24.3 31 6.86 6.1 28 39 1014.9 0 15.5 20.7 29.1 76.1 66.9 229.4
01/09 14:30 24.5 31 6.94 6.3 26 35 1015 0 15.6 20.8 29.3 76.6 67.6 231.9
01/09 14:20 24.3 30 6.64 5.6 30 43 1015.2 0 15.0 20.5 28.4 74.2 64.6 221.1
01/09 14:10 24.1 31 6.78 5.9 24 33 1015.4 0 15.3 20.7 29.0 75.6 66.3 227.0
01/09 14:00 23.8 33 7.1 6.6 24 32 1015.7 0 16.0 21.2 30.1 78.7 70.0 240.1
01/09 13:50 24 31 6.74 5.8 28 37 1015.9 0 15.2 20.7 28.9 75.4 65.9 225.8
01/09 13:40 23.8 32 6.88 6.1 30 43 1015.9 0 15.5 20.9 29.4 76.8 67.6 231.7
01/09 13:30 24 31 6.74 5.8 32 43 1016 0 15.2 20.7 28.9 75.4 65.9 225.9
01/09 13:20 24.5 31 6.94 6.3 30 41 1016.2 0 15.6 20.8 29.4 76.7 67.7 232.1
01/09 13:10 25 31 7.14 6.7 32 41 1016.3 0 16.0 21.0 29.9 78.0 69.4 238.3
01/09 13:00 24.3 30 6.64 5.6 35 46 1016.6 0 15.0 20.5 28.5 74.3 64.7 221.4
01/09 12:50 24.4 32 7.12 6.6 32 39 1016.6 0 16.0 21.1 30.0 78.4 69.8 239.3
01/09 12:40 24.9 31 7.1 6.6 35 48 1016.7 0 15.9 21.0 29.8 77.8 69.1 237.1
01/09 12:30 24.7 31 7.02 6.4 30 46 1016.9 0 15.8 20.9 29.6 77.3 68.4 234.7
01/09 12:20 23.8 31 6.67 5.7 33 46 1017.2 0 15.1 20.7 28.8 75.1 65.4 224.0
01/09 12:10 24.3 34 7.52 7.4 32 46 1017.3 0 16.8 21.7 31.4 82.1 74.3 255.2
01/09 12:00 24.5 32 7.16 6.7 39 50 1017.6 0 16.1 21.2 30.2 78.8 70.2 240.7
01/09 11:50 24.7 32 7.24 6.9 35 48 1017.9 0 16.2 21.2 30.4 79.3 70.9 243.3
01/09 11:40 24.6 29 6.53 5.4 37 50 1018.2 0 14.8 20.3 28.1 73.2 63.3 216.8
01/09 11:30 23.9 31 6.71 5.8 37 44 1018.4 0 15.2 20.7 28.9 75.4 65.8 225.5
01/09 11:20 24.3 31 6.86 6.1 33 46 1018.5 0 15.5 20.8 29.3 76.4 67.1 230.1
01/09 11:10 23.9 32 6.92 6.2 35 46 1018.6 0 15.6 21.0 29.6 77.3 68.1 233.5
01/09 11:00 23.6 32 6.81 6 35 41 1018.9 0 15.4 21.0 29.4 76.6 67.2 230.2
01/09 10:50 23.5 34 7.19 6.7 32 44 1019 0 16.2 21.5 30.7 80.1 71.4 245.1
01/09 10:40 23.4 34 7.15 6.7 28 41 1019.1 0 16.1 21.5 30.6 79.9 71.1 243.9
01/09 10:30 23.3 36 7.53 7.4 26 37 1019.5 0 16.9 22.0 31.9 83.4 75.4 259.1
01/09 10:20 22.6 37 7.43 7.2 28 41 1019.7 0 16.7 22.1 31.8 83.2 75.0 257.4
01/09 10:10 22.1 38 7.42 7.1 24 41 1019.9 0 16.7 22.2 32.0 83.7 75.4 258.7
01/09 10:00 21.6 38 7.21 6.7 24 37 1020.1 0 16.3 22.0 31.5 82.3 73.4 251.9
01/09 09:50 20.9 40 7.28 6.8 28 37 1020.2 0 16.5 22.3 32.0 83.6 74.9 256.9

Last Refresh: 02-Sep-2026 02:30:59

Bureau of Meteorology